Aviation Digital Data Service (ADDS)

Output produced by METARs form (0317 UTC 21 December 2014)
found at http://aviationweather.gov/adds/metars/
 
KRME 210217Z 2102/2124 VRB02KT P6SM OVC025 
     FM210900 VRB02KT P6SM OVC035 
     FM212000 VRB02KT P6SM SCT250